Time;durP1;ratioP1;P1;durP2;ratioP2;P2;SDS_P1;SDS_P2;PMS_P1;PMS_P2;Temp;Humidity;BMP_temperature;BMP_pressure;BME280_temperature;BME280_humidity;BME280_pressure;Samples;Min_cycle;Max_cycle;Signal;HPM_P1;HPM_P2
2023/01/25 00:01:32;;;;;;;58.03;32.05;;;;;;;2.57;77.50;103673.44;5073184;28;20290;-78
2023/01/25 00:03:57;;;;;;;52.42;30.15;;;;;;;2.58;78.28;103668.38;5072975;28;20051;-78
2023/01/25 00:06:23;;;;;;;55.85;33.03;;;;;;;2.54;77.49;103673.19;5073203;28;20446;-78
2023/01/25 00:08:49;;;;;;;55.60;32.45;;;;;;;2.49;77.73;103664.94;5073124;28;20098;-78
2023/01/25 00:11:15;;;;;;;57.03;32.88;;;;;;;2.30;77.33;103641.50;5055161;28;20032;-78
2023/01/25 00:13:41;;;;;;;61.08;35.55;;;;;;;2.43;77.89;103672.22;5073114;28;20039;-78
2023/01/25 00:16:07;;;;;;;59.88;35.30;;;;;;;2.18;78.62;103641.31;5072819;28;20397;-78
2023/01/25 00:18:32;;;;;;;58.15;34.30;;;;;;;2.34;78.86;103669.69;5073072;28;20391;-78
2023/01/25 00:20:58;;;;;;;60.75;33.95;;;;;;;2.30;78.66;103664.06;5077066;28;20032;-78
2023/01/25 00:23:23;;;;;;;65.07;34.88;;;;;;;2.40;78.55;103670.25;5077101;28;20452;-77
2023/01/25 00:25:55;;;;;;;64.97;36.08;;;;;;;2.38;78.12;103665.66;5076799;28;20032;-77
2023/01/25 00:28:21;;;;;;;60.28;34.20;;;;;;;2.39;78.24;103667.50;5076681;28;20074;-78
2023/01/25 00:30:46;;;;;;;64.82;36.40;;;;;;;2.38;78.25;103660.47;5058758;28;20106;-78
2023/01/25 00:33:14;;;;;;;61.05;35.47;;;;;;;2.39;78.69;103675.31;5058969;28;20103;-78
2023/01/25 00:35:40;;;;;;;67.05;36.10;;;;;;;2.36;78.38;103662.94;5076827;28;20060;-78
2023/01/25 00:38:26;;;;;;;65.72;35.85;;;;;;;2.42;78.47;103671.31;5076689;28;20086;-78
2023/01/25 00:40:51;;;;;;;66.57;36.08;;;;;;;2.41;78.28;103656.44;5076442;28;20067;-78
2023/01/25 00:43:17;;;;;;;63.10;36.53;;;;;;;2.44;78.60;103658.38;5058690;28;20060;-78
2023/01/25 00:45:42;;;;;;;62.47;36.28;;;;;;;2.34;78.23;103640.09;5076291;28;20052;-78
2023/01/25 00:48:08;;;;;;;66.20;36.25;;;;;;;2.39;78.54;103662.28;5076550;28;20032;-78
2023/01/25 00:50:36;;;;;;;67.22;37.53;;;;;;;2.18;78.05;103635.19;5076143;28;20025;-78
2023/01/25 00:53:01;;;;;;;67.40;38.17;;;;;;;2.16;78.66;103642.88;5076201;28;20141;-78
2023/01/25 00:55:26;;;;;;;66.60;36.90;;;;;;;2.20;78.05;103655.44;5076455;28;20484;-83
2023/01/25 00:57:52;;;;;;;68.65;36.25;;;;;;;2.18;78.77;103649.13;5076344;28;20036;-78
2023/01/25 01:00:17;;;;;;;67.85;37.30;;;;;;;2.07;78.71;103644.66;5041623;28;20044;-78
2023/01/25 01:02:43;;;;;;;69.32;37.78;;;;;;;2.16;79.20;103650.72;5059932;28;20063;-78
2023/01/25 01:05:08;;;;;;;70.88;37.05;;;;;;;2.12;78.92;103635.56;5078582;28;20492;-78
2023/01/25 01:07:34;;;;;;;72.30;38.03;;;;;;;2.19;78.40;103647.47;5076224;28;20480;-78
2023/01/25 01:09:59;;;;;;;73.00;37.75;;;;;;;2.12;78.56;103625.13;5076594;28;20464;-79
2023/01/25 01:12:25;;;;;;;75.18;39.25;;;;;;;2.21;78.05;103638.06;5076081;28;20032;-78
2023/01/25 01:14:50;;;;;;;69.00;36.65;;;;;;;2.20;78.86;103623.22;5058108;28;20040;-78
2023/01/25 01:17:15;;;;;;;64.53;34.55;;;;;;;2.36;79.24;103629.03;5058182;28;20024;-78
2023/01/25 01:19:41;;;;;;;69.63;37.70;;;;;;;2.27;78.52;103591.69;5076016;28;20436;-78
2023/01/25 01:22:06;;;;;;;71.13;37.35;;;;;;;2.56;77.55;103641.19;5075998;28;20037;-78
2023/01/25 01:24:32;;;;;;;67.97;37.92;;;;;;;2.59;77.54;103637.94;5075359;28;20036;-78
2023/01/25 01:26:57;;;;;;;70.68;37.53;;;;;;;2.59;76.96;103644.09;5075855;28;20055;-80
2023/01/25 01:29:23;;;;;;;67.50;35.90;;;;;;;2.49;76.76;103621.50;5075355;28;20048;-78
2023/01/25 01:31:51;;;;;;;76.50;39.25;;;;;;;2.61;77.22;103642.53;5075591;28;20388;-78
2023/01/25 01:34:17;;;;;;;72.43;38.15;;;;;;;2.56;77.20;103641.19;5057756;28;20040;-78
2023/01/25 01:36:44;;;;;;;82.10;41.28;;;;;;;2.43;77.16;103639.19;5057708;28;20028;-77
2023/01/25 01:39:09;;;;;;;74.35;38.83;;;;;;;2.34;77.96;103624.44;5075491;28;20040;-78
2023/01/25 01:41:35;;;;;;;77.15;40.13;;;;;;;2.41;77.42;103642.47;5075276;28;20162;-78
2023/01/25 01:44:01;;;;;;;72.10;37.08;;;;;;;2.32;77.70;103637.34;5075234;28;20021;-78
2023/01/25 01:46:37;;;;;;;76.35;39.10;;;;;;;2.11;77.38;103611.97;5057760;28;20059;-78
2023/01/25 01:49:10;;;;;;;78.18;39.22;;;;;;;2.29;78.20;103652.72;5075569;28;20125;-78
2023/01/25 01:51:47;;;;;;;74.03;38.20;;;;;;;2.25;78.27;103638.47;5075527;28;20052;-77
2023/01/25 01:54:18;;;;;;;74.90;38.35;;;;;;;2.36;77.98;103635.94;5075329;28;20025;-77
2023/01/25 01:57:13;;;;;;;74.40;38.38;;;;;;;2.46;77.97;103646.41;5057355;28;20389;-77
2023/01/25 01:59:47;;;;;;;77.93;37.50;;;;;;;2.45;78.08;103628.91;5075341;28;20037;-78
2023/01/25 02:02:13;;;;;;;74.68;39.53;;;;;;;2.51;77.78;103634.66;5056834;28;20049;-78
2023/01/25 02:04:40;;;;;;;77.90;40.13;;;;;;;2.55;77.75;103634.16;5075149;28;20609;-78
2023/01/25 02:07:45;;;;;;;76.07;39.53;;;;;;;2.60;77.84;103638.06;5075087;28;20105;-77
2023/01/25 02:10:12;;;;;;;76.38;38.83;;;;;;;2.50;77.71;103618.09;4973936;28;20122;-78
2023/01/25 02:12:37;;;;;;;77.90;40.28;;;;;;;2.62;77.22;103639.16;4973931;28;20483;-77
2023/01/25 02:15:04;;;;;;;81.18;40.53;;;;;;;2.59;77.41;103633.66;5021726;28;20048;-78
2023/01/25 02:17:33;;;;;;;75.63;39.25;;;;;;;2.56;76.86;103629.84;5056931;28;20033;-78
2023/01/25 02:20:08;;;;;;;73.80;38.85;;;;;;;2.61;77.16;103636.38;5074559;28;20039;-78
2023/01/25 02:22:57;;;;;;;80.05;40.20;;;;;;;2.50;77.53;103632.84;5074443;28;20036;-77
2023/01/25 02:25:24;;;;;;;80.07;40.42;;;;;;;2.31;76.99;103619.84;5074401;28;20032;-77
2023/01/25 02:27:57;;;;;;;87.80;41.67;;;;;;;2.26;76.95;103613.31;5056732;28;20059;-77
2023/01/25 02:30:23;;;;;;;79.53;39.65;;;;;;;2.30;77.29;103628.44;5074776;28;20039;-77
2023/01/25 02:32:49;;;;;;;88.22;42.53;;;;;;;2.10;77.58;103610.09;5074566;28;20032;-77
2023/01/25 02:35:23;;;;;;;80.85;39.25;;;;;;;2.11;78.33;103615.47;5056716;28;20032;-77
2023/01/25 02:37:49;;;;;;;77.80;39.63;;;;;;;2.15;78.55;103620.19;5074084;28;20028;-77
2023/01/25 02:40:16;;;;;;;80.80;40.38;;;;;;;2.13;78.00;103613.91;5074200;28;20039;-77
2023/01/25 02:42:44;;;;;;;82.43;40.55;;;;;;;2.02;77.55;103600.72;5073471;28;20052;-77
2023/01/25 02:45:15;;;;;;;80.40;38.40;;;;;;;2.04;78.63;103607.88;5056338;28;20066;-77
2023/01/25 02:47:40;;;;;;;85.85;40.95;;;;;;;2.01;78.12;103612.81;5074331;28;20448;-77
2023/01/25 02:50:06;;;;;;;83.20;41.50;;;;;;;1.70;77.92;103581.38;5056098;28;20033;-77
2023/01/25 02:52:31;;;;;;;87.15;43.22;;;;;;;1.70;78.53;103607.44;5056425;28;20119;-77
2023/01/25 02:54:57;;;;;;;83.57;39.78;;;;;;;1.56;80.01;103594.84;5073990;28;20060;-77
2023/01/25 02:57:22;;;;;;;85.70;40.95;;;;;;;1.50;79.49;103591.69;5073779;28;20066;-77
2023/01/25 02:59:48;;;;;;;81.30;39.22;;;;;;;1.68;80.29;103601.19;5056164;28;20358;-77
2023/01/25 03:02:13;;;;;;;90.47;42.95;;;;;;;1.65;79.77;103589.56;5055757;28;20407;-77
2023/01/25 03:04:38;;;;;;;89.53;43.83;;;;;;;1.76;78.90;103604.50;5073950;28;20460;-77
2023/01/25 03:07:04;;;;;;;87.57;40.85;;;;;;;1.74;79.27;103604.31;5073929;28;20417;-77
2023/01/25 03:09:29;;;;;;;84.20;40.80;;;;;;;1.78;79.43;103610.75;5073871;28;20043;-77
2023/01/25 03:11:55;;;;;;;84.97;41.65;;;;;;;1.82;80.06;103609.34;5055951;28;20127;-77
2023/01/25 03:14:20;;;;;;;85.63;41.15;;;;;;;1.86;79.59;103607.13;5055841;28;20496;-77
2023/01/25 03:16:45;;;;;;;87.72;42.78;;;;;;;1.75;79.56;103580.09;5073500;28;20029;-77
2023/01/25 03:19:11;;;;;;;94.40;42.05;;;;;;;1.82;79.75;103588.47;5055747;28;20048;-77
2023/01/25 03:21:36;;;;;;;86.28;41.70;;;;;;;1.79;79.49;103572.56;5073624;28;20171;-77
2023/01/25 03:24:02;;;;;;;92.65;43.25;;;;;;;1.98;79.68;103599.50;5073643;28;20097;-77
2023/01/25 03:26:28;;;;;;;89.60;42.53;;;;;;;2.00;79.21;103595.34;5073393;28;20036;-78
2023/01/25 03:28:54;;;;;;;90.30;42.25;;;;;;;1.93;79.30;103579.94;5073588;28;20040;-77
2023/01/25 03:31:19;;;;;;;91.82;42.50;;;;;;;2.03;79.00;103568.63;5073527;28;20434;-77
2023/01/25 03:33:45;;;;;;;87.95;41.95;;;;;;;2.02;78.44;103561.59;5073482;28;20029;-77
2023/01/25 03:36:10;;;;;;;88.85;40.88;;;;;;;2.13;79.12;103571.25;5073231;28;20357;-77
2023/01/25 03:38:36;;;;;;;89.88;42.95;;;;;;;2.14;78.66;103557.44;5073412;28;20358;-77
2023/01/25 03:41:02;;;;;;;94.47;43.42;;;;;;;2.18;78.62;103567.38;5073419;28;20029;-78
2023/01/25 03:43:29;;;;;;;90.22;42.63;;;;;;;2.15;78.59;103562.81;5055691;28;20109;-78
2023/01/25 03:45:56;;;;;;;92.03;43.55;;;;;;;2.18;78.29;103562.16;5055445;28;20032;-77
2023/01/25 03:48:23;;;;;;;91.63;42.83;;;;;;;2.17;78.45;103566.44;5073437;28;20055;-77
2023/01/25 03:50:57;;;;;;;85.13;42.08;;;;;;;2.15;78.75;103564.50;5073665;28;20063;-77
2023/01/25 03:53:27;;;;;;;86.82;41.88;;;;;;;2.16;78.83;103561.13;5039980;28;20419;-77
2023/01/25 03:56:01;;;;;;;93.13;43.25;;;;;;;2.11;78.57;103560.72;5073242;28;20414;-77
2023/01/25 03:58:27;;;;;;;86.97;42.92;;;;;;;1.87;79.24;103529.84;5073358;28;20032;-76
2023/01/25 04:00:57;;;;;;;91.28;43.72;;;;;;;1.92;78.87;103534.66;5072853;28;20056;-77
2023/01/25 04:03:24;;;;;;;88.85;43.72;;;;;;;2.10;78.63;103573.59;5073291;28;20040;-77
2023/01/25 04:05:50;;;;;;;93.32;43.63;;;;;;;2.15;79.11;103567.13;5073063;28;20028;-77
2023/01/25 04:08:15;;;;;;;88.07;42.25;;;;;;;2.20;78.63;103558.91;5055139;28;20465;-77
2023/01/25 04:10:41;;;;;;;86.35;41.05;;;;;;;2.32;78.47;103555.56;5055334;28;20052;-77
2023/01/25 04:13:06;;;;;;;88.95;42.25;;;;;;;2.22;78.15;103546.00;5055237;28;20059;-77
2023/01/25 04:15:32;;;;;;;89.05;44.38;;;;;;;2.30;78.17;103563.22;5055038;28;20112;-77
2023/01/25 04:17:57;;;;;;;90.85;42.58;;;;;;;2.32;77.97;103555.56;5072987;28;20388;-77
2023/01/25 04:20:23;;;;;;;91.20;41.85;;;;;;;2.24;77.93;103534.00;5072805;28;20044;-77
2023/01/25 04:22:48;;;;;;;94.18;43.47;;;;;;;2.28;77.85;103527.38;5072773;28;20040;-77
2023/01/25 04:25:14;;;;;;;96.82;42.65;;;;;;;2.19;76.81;103531.00;5072793;28;20121;-80
2023/01/25 04:27:39;;;;;;;94.20;43.58;;;;;;;2.12;77.70;103517.28;5072675;28;20548;-79
2023/01/25 04:30:05;;;;;;;94.78;43.75;;;;;;;2.20;77.92;103538.03;5072945;28;20103;-77
2023/01/25 04:32:30;;;;;;;86.28;41.80;;;;;;;2.26;78.68;103543.78;5054951;28;20040;-77
2023/01/25 04:34:56;;;;;;;93.75;43.00;;;;;;;2.32;78.49;103547.72;5054917;28;20025;-77
2023/01/25 04:37:21;;;;;;;95.50;42.90;;;;;;;2.36;78.16;103542.00;5072883;28;20119;-77
2023/01/25 04:39:47;;;;;;;92.28;42.72;;;;;;;2.41;78.06;103544.22;5054781;28;20058;-77
2023/01/25 04:42:12;;;;;;;93.07;43.40;;;;;;;2.30;77.95;103525.78;5054822;28;20068;-77
2023/01/25 04:44:37;;;;;;;94.95;42.70;;;;;;;2.18;77.68;103503.06;5054807;28;20090;-77
2023/01/25 04:47:03;;;;;;;92.22;44.53;;;;;;;2.36;77.90;103544.63;5072784;28;20488;-77
2023/01/25 04:49:28;;;;;;;93.88;43.35;;;;;;;2.32;77.97;103542.50;5072557;28;20487;-78
2023/01/25 04:51:54;;;;;;;97.28;44.63;;;;;;;2.18;77.54;103521.31;5055024;28;20039;-77
2023/01/25 04:54:19;;;;;;;94.32;42.90;;;;;;;2.23;77.82;103524.38;5072515;28;20507;-77
2023/01/25 04:56:44;;;;;;;92.95;43.42;;;;;;;2.29;77.12;103532.72;5072694;28;20032;-77
2023/01/25 04:59:10;;;;;;;94.10;44.55;;;;;;;2.09;76.79;103515.31;5072342;28;20051;-77
2023/01/25 05:01:35;;;;;;;92.10;44.38;;;;;;;2.02;77.55;103535.50;5072264;28;20055;-77
2023/01/25 05:04:01;;;;;;;97.65;44.28;;;;;;;1.96;77.97;103530.66;5072365;28;20041;-77
2023/01/25 05:06:26;;;;;;;96.35;43.88;;;;;;;1.81;77.74;103514.56;5075582;28;20423;-77
2023/01/25 05:08:51;;;;;;;93.57;44.05;;;;;;;1.86;77.97;103517.59;5075938;28;20029;-77
2023/01/25 05:11:17;;;;;;;94.53;42.25;;;;;;;1.81;78.08;103504.16;5041543;28;20044;-77
2023/01/25 05:13:42;;;;;;;89.15;40.97;;;;;;;1.75;77.68;103485.34;5076239;28;20032;-76
2023/01/25 05:16:07;;;;;;;96.68;42.35;;;;;;;1.72;77.98;103477.28;5076607;28;20457;-78
2023/01/25 05:18:33;;;;;;;97.30;43.92;;;;;;;1.83;77.97;103513.00;5058049;28;20037;-78
2023/01/25 05:20:58;;;;;;;92.38;42.60;;;;;;;1.81;77.75;103519.78;5075745;28;20039;-78
2023/01/25 05:23:23;;;;;;;95.00;44.92;;;;;;;1.67;78.29;103526.38;5058340;28;20381;-77
2023/01/25 05:28:33;;;;;;;89.32;41.60;;;;;;;1.49;79.00;103517.78;5075906;28;20526;-77
2023/01/25 05:30:58;;;;;;;82.35;37.22;;;;;;;1.52;78.83;103516.25;5075858;28;20037;-77
2023/01/25 05:33:23;;;;;;;84.05;39.92;;;;;;;1.53;79.17;103513.78;5075805;28;20033;-77
2023/01/25 05:35:49;;;;;;;83.90;37.92;;;;;;;1.50;79.20;103493.59;5075843;28;20036;-77
2023/01/25 05:38:14;;;;;;;86.28;40.42;;;;;;;1.57;78.59;103508.06;5057725;28;20028;-77
2023/01/25 05:40:39;;;;;;;88.60;40.08;;;;;;;1.26;78.95;103473.13;5075605;28;20028;-77
2023/01/25 05:43:05;;;;;;;82.47;38.20;;;;;;;1.46;79.67;103514.03;5075352;28;20115;-77
2023/01/25 05:45:30;;;;;;;81.38;38.63;;;;;;;1.42;80.05;103511.91;5075525;28;20468;-78
2023/01/25 05:47:57;;;;;;;80.93;37.92;;;;;;;1.29;80.33;103493.34;5075490;28;20043;-76
2023/01/25 05:50:23;;;;;;;85.70;38.63;;;;;;;1.42;79.60;103511.91;5075500;28;20522;-76
2023/01/25 05:52:49;;;;;;;79.47;36.72;;;;;;;1.36;80.24;103493.09;5075348;28;20029;-76
2023/01/25 05:55:15;;;;;;;86.05;39.10;;;;;;;1.38;79.37;103496.78;5057245;28;20035;-76
2023/01/25 05:57:40;;;;;;;82.28;38.13;;;;;;;1.40;79.37;103503.94;5075245;28;20032;-77
2023/01/25 06:00:06;;;;;;;77.30;37.63;;;;;;;1.43;79.03;103514.66;5075006;28;20403;-77
2023/01/25 06:02:32;;;;;;;83.22;37.10;;;;;;;1.37;79.38;103497.53;5075240;28;20101;-77
2023/01/25 06:04:57;;;;;;;76.18;35.40;;;;;;;1.40;79.18;103505.63;5074962;28;20032;-78
2023/01/25 06:07:23;;;;;;;79.70;36.75;;;;;;;1.32;79.38;103502.34;5075455;28;20044;-76
2023/01/25 06:09:49;;;;;;;79.82;36.53;;;;;;;1.32;79.31;103499.72;5056997;28;20482;-77
2023/01/25 06:12:15;;;;;;;77.20;36.70;;;;;;;1.27;78.93;103495.78;5074979;28;20457;-76
2023/01/25 06:14:40;;;;;;;75.60;35.53;;;;;;;1.35;78.96;103509.53;5057094;28;20032;-76
2023/01/25 06:17:06;;;;;;;78.68;36.97;;;;;;;1.33;79.34;103516.25;5074801;28;20032;-76
2023/01/25 06:19:32;;;;;;;78.45;36.72;;;;;;;1.34;79.29;103516.44;5074896;28;20031;-77
2023/01/25 06:21:57;;;;;;;88.10;38.67;;;;;;;1.18;79.49;103485.47;5039911;28;20460;-78
2023/01/25 06:24:22;;;;;;;80.70;36.90;;;;;;;1.36;79.49;103511.34;5056735;28;20090;-76
2023/01/25 06:26:48;;;;;;;73.60;34.05;;;;;;;1.41;80.04;103515.28;5074696;28;20042;-77
2023/01/25 06:29:13;;;;;;;75.95;37.67;;;;;;;1.43;79.42;103514.66;5040049;28;20095;-76
2023/01/25 06:31:39;;;;;;;80.07;36.92;;;;;;;1.45;78.93;103502.66;5074581;28;20040;-77
2023/01/25 06:34:05;;;;;;;72.07;35.72;;;;;;;1.48;79.14;103505.56;5074329;28;20064;-77
2023/01/25 06:36:31;;;;;;;76.28;36.55;;;;;;;1.50;79.15;103500.50;5074598;28;20483;-77
2023/01/25 06:38:56;;;;;;;69.72;34.28;;;;;;;1.47;79.44;103505.44;5074197;28;20064;-77
2023/01/25 06:41:22;;;;;;;81.40;37.30;;;;;;;1.45;79.46;103504.34;5039869;28;20518;-77
2023/01/25 06:43:49;;;;;;;76.30;36.40;;;;;;;1.42;79.36;103488.47;5074686;28;20032;-77
2023/01/25 06:46:15;;;;;;;78.47;37.10;;;;;;;1.46;78.73;103506.22;5074279;28;20096;-77
2023/01/25 06:48:41;;;;;;;76.28;37.00;;;;;;;1.42;78.32;103506.72;5074592;28;20115;-77
2023/01/25 06:51:09;;;;;;;76.53;36.47;;;;;;;1.40;78.87;103508.25;5055945;28;20056;-77
2023/01/25 06:53:38;;;;;;;77.90;35.90;;;;;;;1.42;78.86;103502.41;5074195;28;20028;-77
2023/01/25 06:56:09;;;;;;;76.28;36.45;;;;;;;1.41;78.84;103507.47;5073844;28;20029;-77
2023/01/25 06:58:35;;;;;;;78.13;37.42;;;;;;;1.35;79.37;103494.81;5074040;28;20066;-77
2023/01/25 07:01:11;;;;;;;76.00;36.85;;;;;;;1.36;78.64;103494.03;5052412;28;20049;-77
2023/01/25 07:03:37;;;;;;;77.75;37.45;;;;;;;1.32;78.88;103498.81;5073704;28;20106;-77
2023/01/25 07:06:05;;;;;;;73.70;36.33;;;;;;;1.17;78.79;103477.50;5055961;28;20516;-77
2023/01/25 07:08:31;;;;;;;73.93;36.55;;;;;;;1.29;79.36;103501.16;5055959;28;20033;-77
2023/01/25 07:11:00;;;;;;;79.88;37.00;;;;;;;1.23;79.01;103473.75;5073996;28;20040;-76
2023/01/25 07:13:26;;;;;;;76.97;36.20;;;;;;;1.29;79.51;103475.13;5073963;28;20078;-77
2023/01/25 07:16:00;;;;;;;79.60;36.83;;;;;;;1.41;79.68;103497.97;5073733;28;20028;-76
2023/01/25 07:18:26;;;;;;;82.38;37.25;;;;;;;1.40;79.75;103500.44;5073855;28;20078;-77
2023/01/25 07:20:52;;;;;;;84.93;37.72;;;;;;;1.33;79.30;103498.03;5073663;28;20465;-77
2023/01/25 07:23:18;;;;;;;79.05;36.28;;;;;;;1.38;80.17;103502.00;5073401;28;20047;-77
2023/01/25 07:25:46;;;;;;;82.32;37.05;;;;;;;1.38;79.29;103510.72;5073144;28;20068;-77
2023/01/25 07:28:11;;;;;;;76.07;37.03;;;;;;;1.31;79.56;103482.28;5038871;28;20029;-77
2023/01/25 07:30:37;;;;;;;81.95;37.33;;;;;;;1.35;79.02;103484.38;5055778;28;20050;-76
2023/01/25 07:33:02;;;;;;;74.43;36.15;;;;;;;1.45;78.99;103497.44;5073264;28;20032;-77
2023/01/25 07:35:27;;;;;;;73.47;35.03;;;;;;;1.47;78.81;103489.78;5073549;28;20024;-78
2023/01/25 07:37:54;;;;;;;78.63;36.75;;;;;;;1.37;79.40;103482.84;5073626;28;20033;-77
2023/01/25 07:40:19;;;;;;;79.88;35.90;;;;;;;1.19;79.26;103466.44;5073345;28;20078;-77
2023/01/25 07:42:45;;;;;;;85.35;36.13;;;;;;;1.18;78.80;103468.91;5073247;28;20032;-77
2023/01/25 07:45:10;;;;;;;84.25;39.20;;;;;;;1.21;79.14;103487.44;5055711;28;20365;-77
2023/01/25 07:47:36;;;;;;;76.50;35.55;;;;;;;1.19;80.21;103481.16;5073015;28;20037;-77
2023/01/25 07:50:02;;;;;;;81.65;38.80;;;;;;;1.18;79.99;103479.34;5055304;28;20036;-77
2023/01/25 07:52:27;;;;;;;76.55;35.67;;;;;;;1.25;80.57;103477.44;5055318;28;20113;-78
2023/01/25 07:54:53;;;;;;;80.97;38.15;;;;;;;1.35;80.31;103481.78;5037956;28;20102;-76
2023/01/25 07:57:19;;;;;;;84.88;38.92;;;;;;;1.36;79.32;103486.19;5072469;28;20469;-77
2023/01/25 07:59:44;;;;;;;89.47;38.45;;;;;;;1.38;80.16;103483.75;5054966;28;20163;-76
2023/01/25 08:02:10;;;;;;;86.97;38.17;;;;;;;1.41;80.41;103486.63;5054285;28;20135;-77
2023/01/25 08:04:36;;;;;;;84.25;38.05;;;;;;;1.40;80.12;103484.78;5072721;28;20033;-77
2023/01/25 08:07:01;;;;;;;83.45;37.10;;;;;;;1.46;80.05;103482.75;5072369;28;20032;-77
2023/01/25 08:09:27;;;;;;;86.57;36.63;;;;;;;1.45;79.79;103465.28;5038256;28;20175;-76
2023/01/25 08:11:52;;;;;;;83.60;38.83;;;;;;;1.54;79.68;103475.59;5072704;28;20040;-77
2023/01/25 08:14:18;;;;;;;83.80;38.33;;;;;;;1.58;80.09;103475.09;5072591;28;20039;-77
2023/01/25 08:16:43;;;;;;;89.78;39.65;;;;;;;1.55;79.24;103469.66;5054527;28;20036;-77
2023/01/25 08:19:10;;;;;;;86.90;38.50;;;;;;;1.49;79.60;103462.16;5054610;28;20119;-77
2023/01/25 08:21:36;;;;;;;87.13;39.25;;;;;;;1.42;79.53;103468.53;5072435;28;20033;-77
2023/01/25 08:24:05;;;;;;;88.38;38.40;;;;;;;1.32;79.68;103458.06;5072711;28;20082;-77
2023/01/25 08:26:32;;;;;;;87.28;39.13;;;;;;;1.30;79.91;103450.91;5072676;28;20085;-77
2023/01/25 08:28:57;;;;;;;85.60;39.22;;;;;;;1.26;79.75;103452.31;5072572;28;20036;-77
2023/01/25 08:31:28;;;;;;;81.20;36.70;;;;;;;1.37;79.72;103462.00;5072508;28;20530;-77
2023/01/25 08:33:54;;;;;;;84.07;37.55;;;;;;;1.36;80.18;103454.94;5054524;28;20032;-77
2023/01/25 08:36:22;;;;;;;84.47;37.92;;;;;;;1.40;79.84;103456.13;5054502;28;20431;-77
2023/01/25 08:38:56;;;;;;;83.78;38.13;;;;;;;1.37;80.14;103442.84;5054467;28;20123;-77
2023/01/25 08:41:23;;;;;;;83.70;38.10;;;;;;;1.46;79.88;103455.00;5075441;28;20032;-77
2023/01/25 08:43:51;;;;;;;82.45;37.53;;;;;;;1.44;79.70;103456.56;5075811;28;20040;-77
2023/01/25 08:46:17;;;;;;;82.45;37.35;;;;;;;1.45;79.52;103465.28;5058335;28;20506;-77
2023/01/25 08:48:42;;;;;;;83.50;38.72;;;;;;;1.32;79.46;103441.50;5058044;28;20029;-77
2023/01/25 08:51:10;;;;;;;81.35;37.30;;;;;;;1.46;80.74;103473.25;5076055;28;20029;-77
2023/01/25 08:53:36;;;;;;;80.63;37.28;;;;;;;1.42;79.72;103458.13;5058182;28;20068;-77
2023/01/25 08:56:03;;;;;;;90.00;38.25;;;;;;;1.48;79.62;103469.06;5075840;28;20536;-77
2023/01/25 08:58:30;;;;;;;80.93;36.88;;;;;;;1.48;79.35;103471.69;5075862;28;20041;-77
2023/01/25 09:01:02;;;;;;;80.68;36.90;;;;;;;1.48;78.29;103450.84;5075401;28;20063;-77
2023/01/25 09:03:27;;;;;;;80.03;36.72;;;;;;;1.52;79.67;103454.63;5076008;28;20037;-82
2023/01/25 09:05:53;;;;;;;84.38;37.38;;;;;;;1.50;78.43;103438.88;5057687;28;20040;-77
2023/01/25 09:08:18;;;;;;;83.63;36.35;;;;;;;1.46;78.94;103428.97;5057798;28;20032;-77
2023/01/25 09:10:44;;;;;;;81.40;36.50;;;;;;;1.57;78.20;103445.53;5075790;28;20039;-77
2023/01/25 09:13:09;;;;;;;84.07;36.45;;;;;;;1.54;77.89;103447.84;5075472;28;20025;-77
2023/01/25 09:15:34;;;;;;;85.07;37.25;;;;;;;1.49;78.68;103434.41;5075220;28;20051;-77
2023/01/25 09:18:00;;;;;;;76.90;36.22;;;;;;;1.51;79.11;103424.16;5075171;28;20440;-78
2023/01/25 09:20:25;;;;;;;88.43;37.85;;;;;;;1.68;79.31;103433.47;5057854;28;20074;-77
2023/01/25 09:22:51;;;;;;;83.38;38.33;;;;;;;1.76;78.21;103437.66;5059420;28;20116;-77
2023/01/25 09:25:16;;;;;;;87.03;37.65;;;;;;;1.82;78.50;103434.66;5077145;28;20119;-77
2023/01/25 09:27:42;;;;;;;84.72;38.42;;;;;;;1.84;78.40;103427.88;5075971;28;20041;-77
2023/01/25 09:30:09;;;;;;;87.05;38.17;;;;;;;1.82;78.42;103437.28;5076147;28;20040;-77
2023/01/25 09:32:35;;;;;;;89.80;39.35;;;;;;;1.75;78.71;103428.00;5075956;28;20449;-77
2023/01/25 09:35:01;;;;;;;93.18;40.58;;;;;;;1.67;78.38;103434.22;5075878;28;20028;-78
2023/01/25 09:37:26;;;;;;;85.03;37.03;;;;;;;1.61;78.66;103420.66;5074924;28;20039;-77
2023/01/25 09:39:51;;;;;;;89.50;39.70;;;;;;;1.56;78.74;103429.78;5075248;28;20028;-77
2023/01/25 09:42:21;;;;;;;82.80;37.80;;;;;;;1.49;79.33;103438.72;5075067;28;20039;-78
2023/01/25 09:45:04;;;;;;;86.43;38.28;;;;;;;1.46;79.70;103443.69;5075112;28;20031;-77
2023/01/25 09:47:35;;;;;;;92.07;37.47;;;;;;;1.42;79.76;103431.16;5057166;28;20032;-78
2023/01/25 09:50:19;;;;;;;90.20;38.38;;;;;;;1.45;79.79;103434.00;5075031;28;20139;-77
2023/01/25 09:52:49;;;;;;;88.65;38.35;;;;;;;1.51;79.37;103437.19;5074923;28;20028;-78
2023/01/25 09:55:17;;;;;;;87.22;37.83;;;;;;;1.42;78.79;103415.53;5074652;28;20029;-77
2023/01/25 09:57:45;;;;;;;88.75;38.80;;;;;;;1.32;78.44;103411.16;5074876;28;20143;-77
2023/01/25 10:00:19;;;;;;;89.00;37.35;;;;;;;1.39;78.67;103425.66;5056762;28;20032;-78
2023/01/25 10:03:03;;;;;;;91.13;38.95;;;;;;;1.38;78.57;103432.56;5057000;28;20083;-77
2023/01/25 10:05:39;;;;;;;79.75;36.55;;;;;;;1.24;79.34;103418.31;5056575;28;20033;-78
2023/01/25 10:08:29;;;;;;;85.80;37.45;;;;;;;1.41;79.33;103440.66;5057013;28;20036;-78
2023/01/25 10:11:01;;;;;;;82.68;36.05;;;;;;;1.31;79.69;103401.53;5074588;28;20047;-77
2023/01/25 10:13:30;;;;;;;88.15;37.35;;;;;;;1.27;79.16;103390.69;5074879;28;20107;-77
2023/01/25 10:16:01;;;;;;;86.45;37.45;;;;;;;1.49;79.79;103410.06;5056380;28;20029;-77
2023/01/25 10:18:39;;;;;;;83.03;34.85;;;;;;;1.55;79.67;103413.22;5056564;28;20044;-77
2023/01/25 10:21:39;;;;;;;85.82;35.38;;;;;;;1.60;79.21;103409.31;5074120;28;20357;-77
2023/01/25 10:24:36;;;;;;;87.15;36.45;;;;;;;1.67;78.94;103413.38;5074549;28;20032;-77
2023/01/25 10:27:28;;;;;;;82.35;36.40;;;;;;;1.58;78.62;103400.44;5073938;28;20406;-78
2023/01/25 10:29:57;;;;;;;78.78;35.47;;;;;;;1.65;78.49;103413.25;5060097;28;20044;-77
2023/01/25 10:32:31;;;;;;;78.38;34.28;;;;;;;1.64;78.92;103401.00;5074103;28;20418;-77
2023/01/25 10:35:00;;;;;;;83.70;36.85;;;;;;;1.67;79.13;103393.47;5074422;28;20032;-77
2023/01/25 10:37:31;;;;;;;85.95;38.30;;;;;;;1.62;78.80;103380.78;5074006;28;20044;-77
2023/01/25 10:40:03;;;;;;;81.10;36.73;;;;;;;1.71;79.12;103387.75;5073933;28;20392;-77
2023/01/25 10:42:36;;;;;;;86.15;36.47;;;;;;;1.73;78.97;103377.44;5073907;28;20044;-78
2023/01/25 10:45:11;;;;;;;88.32;39.53;;;;;;;1.60;78.86;103378.06;5073704;28;20079;-77
2023/01/25 10:47:41;;;;;;;86.78;37.30;;;;;;;1.54;79.13;103366.16;5073753;28;20032;-77
2023/01/25 10:50:07;;;;;;;85.97;37.50;;;;;;;1.40;79.89;103360.66;5073537;28;20093;-77
2023/01/25 10:52:36;;;;;;;87.07;37.08;;;;;;;1.35;80.24;103355.84;5073595;28;20487;-77
2023/01/25 10:55:14;;;;;;;87.18;38.13;;;;;;;1.41;80.17;103356.38;5073423;28;20029;-77
2023/01/25 10:57:57;;;;;;;81.03;34.63;;;;;;;1.50;80.17;103346.78;5073546;28;20111;-77
2023/01/25 11:00:37;;;;;;;82.97;36.28;;;;;;;1.50;79.29;103328.53;5073620;28;20071;-77
2023/01/25 11:03:03;;;;;;;81.07;36.08;;;;;;;1.55;79.02;103341.97;5073103;28;20048;-77
2023/01/25 11:05:40;;;;;;;83.85;37.78;;;;;;;1.52;79.32;103336.47;5055629;28;20432;-81
2023/01/25 11:08:33;;;;;;;76.93;33.72;;;;;;;1.55;78.96;103326.34;5073888;28;20372;-77
2023/01/25 11:11:31;;;;;;;76.13;33.53;;;;;;;1.45;78.92;103319.38;5069434;28;20063;-77
2023/01/25 11:13:56;;;;;;;74.50;32.42;;;;;;;1.42;78.89;103314.84;5073076;28;20072;-77
2023/01/25 11:16:30;;;;;;;79.97;34.90;;;;;;;1.44;79.15;103322.78;5073270;28;20115;-77
2023/01/25 11:18:57;;;;;;;79.63;34.40;;;;;;;1.44;79.36;103307.16;5073316;28;20075;-77
2023/01/25 11:21:25;;;;;;;81.25;34.47;;;;;;;1.42;78.73;103298.31;5073196;28;20040;-77
2023/01/25 11:24:17;;;;;;;76.25;34.63;;;;;;;1.50;79.18;103290.38;5073262;28;20107;-77